sensor_id;sensor_type;location;lat;lon;timestamp;P1;durP1;ratioP1;P2;durP2;ratioP2
2564;SDS011;1292;48.020;7.822;2023-02-18T06:47:01;1.57;;;1.13;;
2564;SDS011;1292;48.020;7.822;2023-02-18T06:49:27;1.20;;;1.10;;
2564;SDS011;1292;48.020;7.822;2023-02-18T06:51:54;1.00;;;0.90;;
2564;SDS011;1292;48.020;7.822;2023-02-18T06:54:21;4.80;;;1.10;;
2564;SDS011;1292;48.020;7.822;2023-02-18T06:56:50;1.43;;;1.10;;
2564;SDS011;1292;48.020;7.822;2023-02-18T06:59:17;1.00;;;0.90;;
2564;SDS011;1292;48.020;7.822;2023-02-18T07:01:43;1.10;;;1.00;;
2564;SDS011;1292;48.020;7.822;2023-02-18T07:04:12;1.03;;;0.93;;
2564;SDS011;1292;48.020;7.822;2023-02-18T07:06:38;1.17;;;1.07;;
2564;SDS011;1292;48.020;7.822;2023-02-18T07:09:05;1.23;;;1.10;;
2564;SDS011;1292;48.020;7.822;2023-02-18T07:11:32;1.47;;;1.20;;
2564;SDS011;1292;48.020;7.822;2023-02-18T07:13:59;0.90;;;0.90;;
2564;SDS011;1292;48.020;7.822;2023-02-18T07:16:25;1.10;;;1.00;;
2564;SDS011;1292;48.020;7.822;2023-02-18T07:18:52;1.20;;;1.10;;
2564;SDS011;1292;48.020;7.822;2023-02-18T07:21:20;1.37;;;1.20;;
2564;SDS011;1292;48.020;7.822;2023-02-18T07:23:47;1.47;;;0.97;;
2564;SDS011;1292;48.020;7.822;2023-02-18T07:26:14;0.80;;;0.80;;
2564;SDS011;1292;48.020;7.822;2023-02-18T07:28:41;1.10;;;1.00;;
2564;SDS011;1292;48.020;7.822;2023-02-18T07:31:07;1.17;;;1.07;;
2564;SDS011;1292;48.020;7.822;2023-02-18T07:33:34;0.90;;;0.90;;
2564;SDS011;1292;48.020;7.822;2023-02-18T07:36:02;1.40;;;1.30;;
2564;SDS011;1292;48.020;7.822;2023-02-18T07:38:30;0.90;;;0.90;;
2564;SDS011;1292;48.020;7.822;2023-02-18T07:40:57;1.10;;;1.00;;
2564;SDS011;1292;48.020;7.822;2023-02-18T07:43:24;1.20;;;1.10;;
2564;SDS011;1292;48.020;7.822;2023-02-18T07:45:51;1.20;;;1.10;;
2564;SDS011;1292;48.020;7.822;2023-02-18T07:48:18;2.13;;;1.13;;
2564;SDS011;1292;48.020;7.822;2023-02-18T07:50:45;1.10;;;1.00;;
2564;SDS011;1292;48.020;7.822;2023-02-18T07:53:13;0.80;;;0.80;;
2564;SDS011;1292;48.020;7.822;2023-02-18T07:55:42;1.00;;;1.00;;
2564;SDS011;1292;48.020;7.822;2023-02-18T07:58:15;1.33;;;1.20;;
2564;SDS011;1292;48.020;7.822;2023-02-18T08:00:42;1.40;;;1.30;;
2564;SDS011;1292;48.020;7.822;2023-02-18T08:03:11;0.83;;;0.83;;
2564;SDS011;1292;48.020;7.822;2023-02-18T08:05:38;1.37;;;1.27;;
2564;SDS011;1292;48.020;7.822;2023-02-18T08:08:05;1.20;;;1.10;;
2564;SDS011;1292;48.020;7.822;2023-02-18T08:10:32;1.30;;;0.87;;
2564;SDS011;1292;48.020;7.822;2023-02-18T08:13:00;2.70;;;1.37;;
2564;SDS011;1292;48.020;7.822;2023-02-18T08:15:26;1.27;;;1.17;;
2564;SDS011;1292;48.020;7.822;2023-02-18T08:17:53;1.00;;;1.00;;
2564;SDS011;1292;48.020;7.822;2023-02-18T08:20:20;1.30;;;1.20;;
2564;SDS011;1292;48.020;7.822;2023-02-18T08:22:47;1.27;;;1.17;;
2564;SDS011;1292;48.020;7.822;2023-02-18T08:25:14;1.57;;;1.23;;
2564;SDS011;1292;48.020;7.822;2023-02-18T08:27:41;1.63;;;1.40;;
2564;SDS011;1292;48.020;7.822;2023-02-18T08:30:09;1.17;;;1.00;;
2564;SDS011;1292;48.020;7.822;2023-02-18T08:32:37;2.40;;;1.00;;
2564;SDS011;1292;48.020;7.822;2023-02-18T08:35:04;1.30;;;1.20;;
2564;SDS011;1292;48.020;7.822;2023-02-18T08:37:31;1.17;;;1.07;;
2564;SDS011;1292;48.020;7.822;2023-02-18T08:39:58;1.53;;;1.10;;
2564;SDS011;1292;48.020;7.822;2023-02-18T08:42:27;1.20;;;1.10;;
2564;SDS011;1292;48.020;7.822;2023-02-18T08:44:53;1.17;;;1.07;;
2564;SDS011;1292;48.020;7.822;2023-02-18T08:47:21;1.17;;;0.90;;
2564;SDS011;1292;48.020;7.822;2023-02-18T08:49:48;3.07;;;1.37;;
2564;SDS011;1292;48.020;7.822;2023-02-18T08:52:15;1.47;;;1.30;;
2564;SDS011;1292;48.020;7.822;2023-02-18T08:54:42;1.00;;;1.00;;
2564;SDS011;1292;48.020;7.822;2023-02-18T08:57:09;1.53;;;0.83;;
2564;SDS011;1292;48.020;7.822;2023-02-18T08:59:35;1.90;;;1.23;;
2564;SDS011;1292;48.020;7.822;2023-02-18T09:02:02;1.37;;;1.27;;
2564;SDS011;1292;48.020;7.822;2023-02-18T09:04:31;1.60;;;1.17;;
2564;SDS011;1292;48.020;7.822;2023-02-18T09:06:58;1.30;;;1.20;;
2564;SDS011;1292;48.020;7.822;2023-02-18T09:09:25;3.83;;;1.93;;
2564;SDS011;1292;48.020;7.822;2023-02-18T09:11:51;4.33;;;1.40;;
2564;SDS011;1292;48.020;7.822;2023-02-18T09:14:18;1.50;;;1.40;;
2564;SDS011;1292;48.020;7.822;2023-02-18T09:16:45;2.53;;;2.00;;
2564;SDS011;1292;48.020;7.822;2023-02-18T09:19:12;2.47;;;1.53;;
2564;SDS011;1292;48.020;7.822;2023-02-18T09:21:40;1.63;;;1.53;;
2564;SDS011;1292;48.020;7.822;2023-02-18T09:24:07;1.37;;;1.27;;
2564;SDS011;1292;48.020;7.822;2023-02-18T09:26:34;1.77;;;1.60;;
2564;SDS011;1292;48.020;7.822;2023-02-18T09:29:01;1.50;;;1.40;;
2564;SDS011;1292;48.020;7.822;2023-02-18T09:31:28;1.40;;;1.23;;
2564;SDS011;1292;48.020;7.822;2023-02-18T09:33:56;1.10;;;1.00;;
2564;SDS011;1292;48.020;7.822;2023-02-18T09:36:24;2.83;;;2.60;;
2564;SDS011;1292;48.020;7.822;2023-02-18T09:38:53;1.87;;;1.43;;
2564;SDS011;1292;48.020;7.822;2023-02-18T09:41:24;1.70;;;1.60;;
2564;SDS011;1292;48.020;7.822;2023-02-18T09:43:56;1.57;;;1.20;;
2564;SDS011;1292;48.020;7.822;2023-02-18T09:46:27;4.33;;;2.40;;
2564;SDS011;1292;48.020;7.822;2023-02-18T09:48:59;4.67;;;2.23;;
2564;SDS011;1292;48.020;7.822;2023-02-18T09:51:27;3.93;;;2.70;;
2564;SDS011;1292;48.020;7.822;2023-02-18T09:53:55;1.90;;;1.70;;
2564;SDS011;1292;48.020;7.822;2023-02-18T09:56:25;1.70;;;1.60;;
2564;SDS011;1292;48.020;7.822;2023-02-18T09:58:54;1.40;;;1.30;;
2564;SDS011;1292;48.020;7.822;2023-02-18T10:01:24;2.83;;;1.57;;
2564;SDS011;1292;48.020;7.822;2023-02-18T10:03:56;5.13;;;1.40;;
2564;SDS011;1292;48.020;7.822;2023-02-18T10:06:26;1.77;;;1.63;;
2564;SDS011;1292;48.020;7.822;2023-02-18T10:08:58;1.40;;;1.13;;
2564;SDS011;1292;48.020;7.822;2023-02-18T10:11:28;1.50;;;1.40;;
2564;SDS011;1292;48.020;7.822;2023-02-18T10:13:57;1.30;;;1.20;;
2564;SDS011;1292;48.020;7.822;2023-02-18T10:16:26;2.07;;;1.17;;
2564;SDS011;1292;48.020;7.822;2023-02-18T10:18:54;1.83;;;1.73;;
2564;SDS011;1292;48.020;7.822;2023-02-18T10:21:24;2.13;;;1.57;;
2564;SDS011;1292;48.020;7.822;2023-02-18T10:23:53;1.77;;;1.30;;
2564;SDS011;1292;48.020;7.822;2023-02-18T10:26:25;1.70;;;1.60;;
2564;SDS011;1292;48.020;7.822;2023-02-18T10:28:54;1.90;;;1.70;;
2564;SDS011;1292;48.020;7.822;2023-02-18T10:31:21;1.63;;;1.53;;
2564;SDS011;1292;48.020;7.822;2023-02-18T10:33:56;6.87;;;1.80;;
2564;SDS011;1292;48.020;7.822;2023-02-18T10:36:26;2.70;;;1.70;;
2564;SDS011;1292;48.020;7.822;2023-02-18T10:39:07;1.93;;;1.70;;
2564;SDS011;1292;48.020;7.822;2023-02-18T10:41:49;6.00;;;1.97;;
2564;SDS011;1292;48.020;7.822;2023-02-18T10:44:26;2.17;;;1.57;;
2564;SDS011;1292;48.020;7.822;2023-02-18T10:47:02;6.63;;;2.53;;
2564;SDS011;1292;48.020;7.822;2023-02-18T10:49:50;2.20;;;1.70;;
2564;SDS011;1292;48.020;7.822;2023-02-18T10:52:22;3.20;;;2.13;;
2564;SDS011;1292;48.020;7.822;2023-02-18T10:54:52;4.50;;;2.47;;
2564;SDS011;1292;48.020;7.822;2023-02-18T10:57:28;2.20;;;1.80;;
2564;SDS011;1292;48.020;7.822;2023-02-18T10:59:57;3.10;;;1.67;;
2564;SDS011;1292;48.020;7.822;2023-02-18T11:02:26;3.80;;;2.03;;
2564;SDS011;1292;48.020;7.822;2023-02-18T11:04:56;6.43;;;2.27;;
2564;SDS011;1292;48.020;7.822;2023-02-18T11:07:27;3.17;;;1.87;;
2564;SDS011;1292;48.020;7.822;2023-02-18T11:09:58;6.70;;;3.17;;
2564;SDS011;1292;48.020;7.822;2023-02-18T11:12:28;1.73;;;1.40;;
2564;SDS011;1292;48.020;7.822;2023-02-18T11:15:04;3.80;;;1.93;;
2564;SDS011;1292;48.020;7.822;2023-02-18T11:17:33;1.60;;;1.33;;
2564;SDS011;1292;48.020;7.822;2023-02-18T11:20:02;1.87;;;1.73;;
2564;SDS011;1292;48.020;7.822;2023-02-18T11:22:56;3.53;;;2.00;;
2564;SDS011;1292;48.020;7.822;2023-02-18T11:25:26;2.23;;;1.60;;
2564;SDS011;1292;48.020;7.822;2023-02-18T11:27:59;2.80;;;1.30;;
2564;SDS011;1292;48.020;7.822;2023-02-18T11:30:30;2.23;;;1.80;;
2564;SDS011;1292;48.020;7.822;2023-02-18T11:33:01;2.27;;;1.50;;
2564;SDS011;1292;48.020;7.822;2023-02-18T11:35:31;1.63;;;1.40;;
2564;SDS011;1292;48.020;7.822;2023-02-18T11:37:59;1.03;;;1.03;;
2564;SDS011;1292;48.020;7.822;2023-02-18T11:40:30;2.60;;;1.60;;
2564;SDS011;1292;48.020;7.822;2023-02-18T11:43:02;2.57;;;2.10;;
2564;SDS011;1292;48.020;7.822;2023-02-18T11:45:31;2.33;;;2.10;;
2564;SDS011;1292;48.020;7.822;2023-02-18T11:47:59;3.47;;;2.13;;
2564;SDS011;1292;48.020;7.822;2023-02-18T11:50:31;2.83;;;2.20;;
2564;SDS011;1292;48.020;7.822;2023-02-18T11:52:59;1.70;;;1.47;;
2564;SDS011;1292;48.020;7.822;2023-02-18T11:55:27;1.67;;;1.20;;
2564;SDS011;1292;48.020;7.822;2023-02-18T11:57:57;1.50;;;1.40;;
2564;SDS011;1292;48.020;7.822;2023-02-18T12:00:32;1.77;;;1.37;;
2564;SDS011;1292;48.020;7.822;2023-02-18T12:03:03;1.77;;;1.30;;
2564;SDS011;1292;48.020;7.822;2023-02-18T12:05:38;1.73;;;1.40;;
2564;SDS011;1292;48.020;7.822;2023-02-18T12:08:06;1.10;;;1.00;;
2564;SDS011;1292;48.020;7.822;2023-02-18T12:10:42;1.20;;;1.10;;
2564;SDS011;1292;48.020;7.822;2023-02-18T12:13:16;1.17;;;1.10;;
2564;SDS011;1292;48.020;7.822;2023-02-18T12:15:51;1.33;;;1.23;;
2564;SDS011;1292;48.020;7.822;2023-02-18T12:18:26;1.67;;;1.57;;
2564;SDS011;1292;48.020;7.822;2023-02-18T12:21:10;2.60;;;2.10;;
2564;SDS011;1292;48.020;7.822;2023-02-18T12:23:44;1.33;;;1.23;;
2564;SDS011;1292;48.020;7.822;2023-02-18T12:26:23;1.40;;;1.30;;
2564;SDS011;1292;48.020;7.822;2023-02-18T12:29:00;2.20;;;1.77;;
2564;SDS011;1292;48.020;7.822;2023-02-18T12:31:52;2.53;;;1.93;;
2564;SDS011;1292;48.020;7.822;2023-02-18T12:34:34;1.93;;;1.60;;
2564;SDS011;1292;48.020;7.822;2023-02-18T12:37:15;2.30;;;2.10;;
2564;SDS011;1292;48.020;7.822;2023-02-18T12:40:02;2.10;;;1.80;;
2564;SDS011;1292;48.020;7.822;2023-02-18T12:42:48;1.33;;;1.17;;
2564;SDS011;1292;48.020;7.822;2023-02-18T12:45:34;1.60;;;1.50;;
2564;SDS011;1292;48.020;7.822;2023-02-18T12:48:20;1.60;;;1.30;;
2564;SDS011;1292;48.020;7.822;2023-02-18T12:53:57;3.23;;;2.53;;
2564;SDS011;1292;48.020;7.822;2023-02-18T12:56:53;3.40;;;2.50;;
2564;SDS011;1292;48.020;7.822;2023-02-18T12:59:47;2.97;;;1.70;;
2564;SDS011;1292;48.020;7.822;2023-02-18T13:02:32;4.90;;;3.27;;
2564;SDS011;1292;48.020;7.822;2023-02-18T13:05:14;2.73;;;2.30;;
2564;SDS011;1292;48.020;7.822;2023-02-18T13:07:53;5.40;;;3.33;;
2564;SDS011;1292;48.020;7.822;2023-02-18T13:10:38;5.17;;;3.43;;
2564;SDS011;1292;48.020;7.822;2023-02-18T13:13:15;3.97;;;3.00;;
2564;SDS011;1292;48.020;7.822;2023-02-18T13:15:46;3.83;;;2.87;;
2564;SDS011;1292;48.020;7.822;2023-02-18T13:18:18;2.90;;;2.27;;
2564;SDS011;1292;48.020;7.822;2023-02-18T13:20:48;2.97;;;2.67;;
2564;SDS011;1292;48.020;7.822;2023-02-18T13:23:18;3.50;;;3.20;;
2564;SDS011;1292;48.020;7.822;2023-02-18T13:25:48;2.70;;;2.50;;
2564;SDS011;1292;48.020;7.822;2023-02-18T13:28:20;4.50;;;3.17;;
2564;SDS011;1292;48.020;7.822;2023-02-18T13:30:55;1.53;;;1.40;;
2564;SDS011;1292;48.020;7.822;2023-02-18T13:33:32;2.20;;;2.00;;
2564;SDS011;1292;48.020;7.822;2023-02-18T13:36:08;1.37;;;1.23;;
2564;SDS011;1292;48.020;7.822;2023-02-18T13:38:51;2.77;;;1.50;;
2564;SDS011;1292;48.020;7.822;2023-02-18T13:41:32;1.30;;;1.20;;
2564;SDS011;1292;48.020;7.822;2023-02-18T13:44:01;2.60;;;1.53;;
2564;SDS011;1292;48.020;7.822;2023-02-18T13:46:39;2.57;;;1.30;;
2564;SDS011;1292;48.020;7.822;2023-02-18T13:49:13;2.73;;;1.40;;
2564;SDS011;1292;48.020;7.822;2023-02-18T13:51:46;1.40;;;1.30;;
2564;SDS011;1292;48.020;7.822;2023-02-18T13:54:15;2.00;;;1.50;;
2564;SDS011;1292;48.020;7.822;2023-02-18T13:56:49;1.40;;;1.13;;
2564;SDS011;1292;48.020;7.822;2023-02-18T13:59:18;1.73;;;1.33;;
2564;SDS011;1292;48.020;7.822;2023-02-18T14:01:50;2.00;;;1.70;;
2564;SDS011;1292;48.020;7.822;2023-02-18T14:04:34;2.00;;;1.77;;
2564;SDS011;1292;48.020;7.822;2023-02-18T14:07:18;2.03;;;1.83;;
2564;SDS011;1292;48.020;7.822;2023-02-18T14:09:52;1.30;;;1.20;;
2564;SDS011;1292;48.020;7.822;2023-02-18T14:18:23;1.83;;;1.40;;
2564;SDS011;1292;48.020;7.822;2023-02-18T14:20:52;1.60;;;1.40;;
2564;SDS011;1292;48.020;7.822;2023-02-18T14:23:54;2.83;;;1.63;;
2564;SDS011;1292;48.020;7.822;2023-02-18T14:26:24;2.03;;;1.50;;
2564;SDS011;1292;48.020;7.822;2023-02-18T14:28:55;1.40;;;1.30;;
2564;SDS011;1292;48.020;7.822;2023-02-18T14:31:33;3.40;;;1.60;;
2564;SDS011;1292;48.020;7.822;2023-02-18T14:37:22;1.30;;;1.07;;
2564;SDS011;1292;48.020;7.822;2023-02-18T14:40:20;2.70;;;1.40;;
2564;SDS011;1292;48.020;7.822;2023-02-18T14:43:03;1.60;;;1.50;;
2564;SDS011;1292;48.020;7.822;2023-02-18T14:51:30;1.53;;;1.23;;
2564;SDS011;1292;48.020;7.822;2023-02-18T14:54:02;1.43;;;1.33;;
2564;SDS011;1292;48.020;7.822;2023-02-18T14:56:31;1.57;;;1.47;;
2564;SDS011;1292;48.020;7.822;2023-02-18T14:59:02;1.47;;;1.37;;
2564;SDS011;1292;48.020;7.822;2023-02-18T15:01:31;1.53;;;1.30;;
2564;SDS011;1292;48.020;7.822;2023-02-18T15:03:59;1.40;;;1.30;;
2564;SDS011;1292;48.020;7.822;2023-02-18T15:06:28;1.43;;;1.33;;
2564;SDS011;1292;48.020;7.822;2023-02-18T15:08:56;0.97;;;0.97;;
2564;SDS011;1292;48.020;7.822;2023-02-18T15:11:26;1.60;;;1.50;;
2564;SDS011;1292;48.020;7.822;2023-02-18T15:13:59;2.67;;;1.83;;
2564;SDS011;1292;48.020;7.822;2023-02-18T15:16:29;1.30;;;1.20;;
2564;SDS011;1292;48.020;7.822;2023-02-18T15:18:58;2.80;;;1.57;;
2564;SDS011;1292;48.020;7.822;2023-02-18T15:21:28;1.33;;;1.23;;
2564;SDS011;1292;48.020;7.822;2023-02-18T15:23:57;1.30;;;1.20;;
2564;SDS011;1292;48.020;7.822;2023-02-18T15:26:32;2.40;;;1.90;;
2564;SDS011;1292;48.020;7.822;2023-02-18T15:29:02;1.60;;;1.50;;
2564;SDS011;1292;48.020;7.822;2023-02-18T15:31:34;2.77;;;2.07;;
2564;SDS011;1292;48.020;7.822;2023-02-18T15:34:08;2.20;;;2.00;;
2564;SDS011;1292;48.020;7.822;2023-02-18T15:36:58;1.47;;;1.37;;
2564;SDS011;1292;48.020;7.822;2023-02-18T15:39:25;1.80;;;1.33;;
2564;SDS011;1292;48.020;7.822;2023-02-18T15:41:55;1.70;;;1.60;;
2564;SDS011;1292;48.020;7.822;2023-02-18T15:44:27;1.40;;;1.30;;
2564;SDS011;1292;48.020;7.822;2023-02-18T15:46:56;1.40;;;1.30;;
2564;SDS011;1292;48.020;7.822;2023-02-18T15:49:25;2.30;;;1.57;;
2564;SDS011;1292;48.020;7.822;2023-02-18T15:51:54;1.63;;;1.30;;
2564;SDS011;1292;48.020;7.822;2023-02-18T15:54:23;1.40;;;1.30;;
2564;SDS011;1292;48.020;7.822;2023-02-18T15:56:52;1.30;;;1.10;;
2564;SDS011;1292;48.020;7.822;2023-02-18T15:59:23;3.60;;;1.67;;
2564;SDS011;1292;48.020;7.822;2023-02-18T16:01:52;1.67;;;1.53;;
2564;SDS011;1292;48.020;7.822;2023-02-18T16:04:20;2.27;;;1.40;;
2564;SDS011;1292;48.020;7.822;2023-02-18T16:06:50;2.80;;;2.50;;
2564;SDS011;1292;48.020;7.822;2023-02-18T16:09:21;1.87;;;1.30;;
2564;SDS011;1292;48.020;7.822;2023-02-18T16:11:51;1.40;;;1.23;;
2564;SDS011;1292;48.020;7.822;2023-02-18T16:14:25;1.57;;;1.47;;
2564;SDS011;1292;48.020;7.822;2023-02-18T16:17:05;2.90;;;1.70;;
2564;SDS011;1292;48.020;7.822;2023-02-18T16:19:44;2.20;;;2.00;;
2564;SDS011;1292;48.020;7.822;2023-02-18T16:22:26;2.50;;;1.40;;
2564;SDS011;1292;48.020;7.822;2023-02-18T16:25:00;3.47;;;2.03;;
2564;SDS011;1292;48.020;7.822;2023-02-18T16:27:34;2.07;;;1.70;;
2564;SDS011;1292;48.020;7.822;2023-02-18T16:30:06;1.90;;;1.77;;
2564;SDS011;1292;48.020;7.822;2023-02-18T16:32:41;2.10;;;1.57;;
2564;SDS011;1292;48.020;7.822;2023-02-18T16:35:08;2.70;;;2.07;;
2564;SDS011;1292;48.020;7.822;2023-02-18T16:37:34;2.67;;;1.70;;
2564;SDS011;1292;48.020;7.822;2023-02-18T16:40:09;4.10;;;3.70;;
2564;SDS011;1292;48.020;7.822;2023-02-18T16:42:50;2.57;;;2.17;;
2564;SDS011;1292;48.020;7.822;2023-02-18T16:45:18;2.00;;;1.90;;
2564;SDS011;1292;48.020;7.822;2023-02-18T16:47:46;3.00;;;2.00;;
2564;SDS011;1292;48.020;7.822;2023-02-18T16:50:15;7.40;;;1.90;;
2564;SDS011;1292;48.020;7.822;2023-02-18T16:52:44;1.77;;;1.57;;
2564;SDS011;1292;48.020;7.822;2023-02-18T16:55:14;2.13;;;1.20;;
2564;SDS011;1292;48.020;7.822;2023-02-18T16:57:43;2.40;;;2.20;;
2564;SDS011;1292;48.020;7.822;2023-02-18T17:00:12;4.93;;;2.30;;
2564;SDS011;1292;48.020;7.822;2023-02-18T17:02:40;2.60;;;1.57;;
2564;SDS011;1292;48.020;7.822;2023-02-18T17:05:09;1.30;;;1.20;;
2564;SDS011;1292;48.020;7.822;2023-02-18T17:07:42;2.40;;;1.57;;
2564;SDS011;1292;48.020;7.822;2023-02-18T17:10:09;3.00;;;2.70;;
2564;SDS011;1292;48.020;7.822;2023-02-18T17:12:36;3.00;;;2.70;;
2564;SDS011;1292;48.020;7.822;2023-02-18T17:15:09;2.83;;;2.13;;
2564;SDS011;1292;48.020;7.822;2023-02-18T17:17:42;2.30;;;2.10;;
2564;SDS011;1292;48.020;7.822;2023-02-18T17:20:09;2.10;;;1.90;;
2564;SDS011;1292;48.020;7.822;2023-02-18T17:22:39;2.73;;;2.53;;
2564;SDS011;1292;48.020;7.822;2023-02-18T17:25:08;3.20;;;2.90;;
2564;SDS011;1292;48.020;7.822;2023-02-18T17:27:37;2.20;;;1.93;;
2564;SDS011;1292;48.020;7.822;2023-02-18T17:30:04;3.90;;;2.70;;
2564;SDS011;1292;48.020;7.822;2023-02-18T17:32:32;3.97;;;3.17;;
2564;SDS011;1292;48.020;7.822;2023-02-18T17:34:59;2.30;;;1.80;;
2564;SDS011;1292;48.020;7.822;2023-02-18T17:37:26;2.57;;;2.10;;
2564;SDS011;1292;48.020;7.822;2023-02-18T17:39:53;1.87;;;1.77;;
2564;SDS011;1292;48.020;7.822;2023-02-18T17:42:20;2.70;;;2.07;;
2564;SDS011;1292;48.020;7.822;2023-02-18T17:44:46;3.00;;;2.60;;
2564;SDS011;1292;48.020;7.822;2023-02-18T17:47:14;1.90;;;1.80;;
2564;SDS011;1292;48.020;7.822;2023-02-18T17:49:42;2.40;;;2.00;;
2564;SDS011;1292;48.020;7.822;2023-02-18T17:52:11;3.03;;;2.20;;
2564;SDS011;1292;48.020;7.822;2023-02-18T17:54:51;2.20;;;1.80;;
2564;SDS011;1292;48.020;7.822;2023-02-18T17:57:18;2.90;;;2.70;;
2564;SDS011;1292;48.020;7.822;2023-02-18T17:59:44;2.50;;;2.30;;
2564;SDS011;1292;48.020;7.822;2023-02-18T18:02:13;2.27;;;2.10;;
2564;SDS011;1292;48.020;7.822;2023-02-18T18:04:51;3.40;;;3.10;;
2564;SDS011;1292;48.020;7.822;2023-02-18T18:07:19;3.07;;;2.87;;
2564;SDS011;1292;48.020;7.822;2023-02-18T18:09:45;3.60;;;2.90;;
2564;SDS011;1292;48.020;7.822;2023-02-18T18:12:12;2.83;;;2.30;;
2564;SDS011;1292;48.020;7.822;2023-02-18T18:14:40;3.60;;;2.13;;
2564;SDS011;1292;48.020;7.822;2023-02-18T18:17:08;2.47;;;2.27;;
2564;SDS011;1292;48.020;7.822;2023-02-18T18:19:36;2.83;;;2.60;;
2564;SDS011;1292;48.020;7.822;2023-02-18T18:22:04;2.90;;;2.70;;
2564;SDS011;1292;48.020;7.822;2023-02-18T18:24:32;2.10;;;1.90;;
2564;SDS011;1292;48.020;7.822;2023-02-18T18:26:59;2.40;;;2.20;;
2564;SDS011;1292;48.020;7.822;2023-02-18T18:29:25;2.80;;;2.60;;
2564;SDS011;1292;48.020;7.822;2023-02-18T18:31:52;3.10;;;2.53;;
2564;SDS011;1292;48.020;7.822;2023-02-18T18:34:19;2.83;;;2.40;;
2564;SDS011;1292;48.020;7.822;2023-02-18T18:36:46;2.50;;;2.00;;
2564;SDS011;1292;48.020;7.822;2023-02-18T18:39:14;2.27;;;2.07;;
2564;SDS011;1292;48.020;7.822;2023-02-18T18:41:40;1.90;;;1.73;;
2564;SDS011;1292;48.020;7.822;2023-02-18T18:44:08;2.30;;;2.10;;
2564;SDS011;1292;48.020;7.822;2023-02-18T18:46:35;3.23;;;2.30;;
2564;SDS011;1292;48.020;7.822;2023-02-18T18:49:02;2.73;;;2.40;;
2564;SDS011;1292;48.020;7.822;2023-02-18T18:51:29;2.40;;;2.20;;
2564;SDS011;1292;48.020;7.822;2023-02-18T18:53:57;2.60;;;2.23;;
2564;SDS011;1292;48.020;7.822;2023-02-18T18:56:25;2.17;;;2.03;;
2564;SDS011;1292;48.020;7.822;2023-02-18T18:58:52;2.70;;;2.50;;
2564;SDS011;1292;48.020;7.822;2023-02-18T19:01:20;5.53;;;3.23;;
2564;SDS011;1292;48.020;7.822;2023-02-18T19:03:51;5.07;;;2.60;;
2564;SDS011;1292;48.020;7.822;2023-02-18T19:06:17;2.90;;;2.70;;
2564;SDS011;1292;48.020;7.822;2023-02-18T19:08:45;3.17;;;2.30;;
2564;SDS011;1292;48.020;7.822;2023-02-18T19:11:12;3.13;;;2.93;;
2564;SDS011;1292;48.020;7.822;2023-02-18T19:13:41;3.90;;;3.60;;
2564;SDS011;1292;48.020;7.822;2023-02-18T19:16:11;4.77;;;4.37;;
2564;SDS011;1292;48.020;7.822;2023-02-18T19:18:42;5.93;;;4.40;;
2564;SDS011;1292;48.020;7.822;2023-02-18T19:21:09;4.63;;;4.03;;
2564;SDS011;1292;48.020;7.822;2023-02-18T19:23:37;2.70;;;2.50;;
2564;SDS011;1292;48.020;7.822;2023-02-18T19:26:04;2.43;;;2.23;;
2564;SDS011;1292;48.020;7.822;2023-02-18T19:28:31;4.67;;;3.20;;
2564;SDS011;1292;48.020;7.822;2023-02-18T19:30:59;3.67;;;2.70;;
2564;SDS011;1292;48.020;7.822;2023-02-18T19:33:26;3.20;;;3.00;;
2564;SDS011;1292;48.020;7.822;2023-02-18T19:35:53;3.87;;;1.90;;
2564;SDS011;1292;48.020;7.822;2023-02-18T19:38:19;2.50;;;2.30;;
2564;SDS011;1292;48.020;7.822;2023-02-18T19:40:46;3.50;;;2.83;;
2564;SDS011;1292;48.020;7.822;2023-02-18T19:43:13;2.20;;;2.00;;
2564;SDS011;1292;48.020;7.822;2023-02-18T19:45:41;2.30;;;2.17;;
2564;SDS011;1292;48.020;7.822;2023-02-18T19:48:10;5.03;;;4.00;;
2564;SDS011;1292;48.020;7.822;2023-02-18T19:50:39;4.40;;;4.00;;
2564;SDS011;1292;48.020;7.822;2023-02-18T19:53:06;4.33;;;3.93;;
2564;SDS011;1292;48.020;7.822;2023-02-18T19:55:33;3.83;;;2.87;;
2564;SDS011;1292;48.020;7.822;2023-02-18T19:58:00;2.77;;;2.20;;
2564;SDS011;1292;48.020;7.822;2023-02-18T20:00:27;5.10;;;4.20;;
2564;SDS011;1292;48.020;7.822;2023-02-18T20:02:53;3.17;;;2.47;;
2564;SDS011;1292;48.020;7.822;2023-02-18T20:05:21;5.50;;;3.80;;
2564;SDS011;1292;48.020;7.822;2023-02-18T20:07:48;3.13;;;2.83;;
2564;SDS011;1292;48.020;7.822;2023-02-18T20:10:16;2.80;;;2.57;;
2564;SDS011;1292;48.020;7.822;2023-02-18T20:12:44;2.53;;;2.33;;
2564;SDS011;1292;48.020;7.822;2023-02-18T20:15:16;2.57;;;2.33;;
2564;SDS011;1292;48.020;7.822;2023-02-18T20:17:43;3.33;;;2.83;;
2564;SDS011;1292;48.020;7.822;2023-02-18T20:20:09;2.70;;;2.50;;
2564;SDS011;1292;48.020;7.822;2023-02-18T20:22:38;3.30;;;3.00;;
2564;SDS011;1292;48.020;7.822;2023-02-18T20:25:05;4.27;;;2.80;;
2564;SDS011;1292;48.020;7.822;2023-02-18T20:27:32;3.43;;;3.00;;
2564;SDS011;1292;48.020;7.822;2023-02-18T20:30:00;3.83;;;3.03;;
2564;SDS011;1292;48.020;7.822;2023-02-18T20:32:28;2.70;;;2.50;;
2564;SDS011;1292;48.020;7.822;2023-02-18T20:34:54;3.00;;;2.70;;
2564;SDS011;1292;48.020;7.822;2023-02-18T20:37:21;3.53;;;3.23;;
2564;SDS011;1292;48.020;7.822;2023-02-18T20:39:50;4.93;;;3.57;;
2564;SDS011;1292;48.020;7.822;2023-02-18T20:42:16;3.80;;;3.40;;
2564;SDS011;1292;48.020;7.822;2023-02-18T20:44:43;3.10;;;2.87;;
2564;SDS011;1292;48.020;7.822;2023-02-18T20:47:11;3.43;;;3.13;;
2564;SDS011;1292;48.020;7.822;2023-02-18T20:49:38;4.00;;;3.60;;
2564;SDS011;1292;48.020;7.822;2023-02-18T20:52:05;2.60;;;2.27;;
2564;SDS011;1292;48.020;7.822;2023-02-18T20:54:32;3.60;;;3.00;;
2564;SDS011;1292;48.020;7.822;2023-02-18T20:57:01;4.17;;;3.77;;
2564;SDS011;1292;48.020;7.822;2023-02-18T20:59:28;2.97;;;2.67;;
2564;SDS011;1292;48.020;7.822;2023-02-18T21:01:57;3.37;;;3.07;;
2564;SDS011;1292;48.020;7.822;2023-02-18T21:04:24;3.43;;;3.13;;
2564;SDS011;1292;48.020;7.822;2023-02-18T21:06:51;3.57;;;3.27;;
2564;SDS011;1292;48.020;7.822;2023-02-18T21:09:18;3.50;;;2.93;;
2564;SDS011;1292;48.020;7.822;2023-02-18T21:11:45;2.87;;;2.67;;
2564;SDS011;1292;48.020;7.822;2023-02-18T21:14:14;3.10;;;2.80;;
2564;SDS011;1292;48.020;7.822;2023-02-18T21:16:41;3.60;;;2.83;;
2564;SDS011;1292;48.020;7.822;2023-02-18T21:19:10;3.00;;;2.67;;
2564;SDS011;1292;48.020;7.822;2023-02-18T21:21:38;3.87;;;2.30;;
2564;SDS011;1292;48.020;7.822;2023-02-18T21:24:05;3.87;;;2.80;;
2564;SDS011;1292;48.020;7.822;2023-02-18T21:26:32;3.60;;;3.33;;
2564;SDS011;1292;48.020;7.822;2023-02-18T21:28:59;2.67;;;2.47;;
2564;SDS011;1292;48.020;7.822;2023-02-18T21:31:31;2.90;;;2.60;;
2564;SDS011;1292;48.020;7.822;2023-02-18T21:33:59;3.27;;;2.80;;
2564;SDS011;1292;48.020;7.822;2023-02-18T21:36:26;4.30;;;3.27;;
2564;SDS011;1292;48.020;7.822;2023-02-18T21:38:55;3.73;;;3.43;;
2564;SDS011;1292;48.020;7.822;2023-02-18T21:41:23;3.00;;;2.70;;
2564;SDS011;1292;48.020;7.822;2023-02-18T21:43:51;2.60;;;2.40;;
2564;SDS011;1292;48.020;7.822;2023-02-18T21:46:19;3.10;;;2.87;;
2564;SDS011;1292;48.020;7.822;2023-02-18T21:48:48;3.10;;;2.80;;
2564;SDS011;1292;48.020;7.822;2023-02-18T21:51:30;2.80;;;2.50;;
2564;SDS011;1292;48.020;7.822;2023-02-18T21:54:16;2.40;;;2.20;;
2564;SDS011;1292;48.020;7.822;2023-02-18T21:56:43;3.43;;;2.47;;
2564;SDS011;1292;48.020;7.822;2023-02-18T21:59:10;3.17;;;2.87;;
